sensor_id;sensor_type;location;lat;lon;timestamp;pressure;altitude;pressure_sealevel;temperature;humidity
76794;BME280;65745;50.278;18.192;2023-08-20T00:01:31;100015.41;;;20.52;84.52
76794;BME280;65745;50.278;18.192;2023-08-20T00:04:05;100018.22;;;20.53;84.37
76794;BME280;65745;50.278;18.192;2023-08-20T00:06:38;100017.58;;;20.50;85.53
76794;BME280;65745;50.278;18.192;2023-08-20T00:09:10;100018.73;;;20.45;86.09
76794;BME280;65745;50.278;18.192;2023-08-20T00:11:42;100018.59;;;20.43;86.42
76794;BME280;65745;50.278;18.192;2023-08-20T00:14:16;100017.26;;;20.39;88.16
76794;BME280;65745;50.278;18.192;2023-08-20T00:16:50;100018.02;;;20.36;87.50
76794;BME280;65745;50.278;18.192;2023-08-20T00:19:23;100018.41;;;20.33;88.27
76794;BME280;65745;50.278;18.192;2023-08-20T00:21:55;100014.77;;;20.29;88.39
76794;BME280;65745;50.278;18.192;2023-08-20T00:24:28;100012.92;;;20.24;89.65
76794;BME280;65745;50.278;18.192;2023-08-20T00:27:00;100012.65;;;20.21;88.99
76794;BME280;65745;50.278;18.192;2023-08-20T00:29:32;100013.85;;;20.22;86.96
76794;BME280;65745;50.278;18.192;2023-08-20T00:32:05;100016.56;;;20.26;86.45
76794;BME280;65745;50.278;18.192;2023-08-20T00:34:38;100020.73;;;20.28;86.24
76794;BME280;65745;50.278;18.192;2023-08-20T00:37:11;100023.19;;;20.28;85.81
76794;BME280;65745;50.278;18.192;2023-08-20T00:39:43;100025.65;;;20.27;85.66
76794;BME280;65745;50.278;18.192;2023-08-20T00:42:15;100024.48;;;20.23;86.56
76794;BME280;65745;50.278;18.192;2023-08-20T00:44:47;100025.23;;;20.21;85.86
76794;BME280;65745;50.278;18.192;2023-08-20T00:47:20;100024.87;;;20.21;85.23
76794;BME280;65745;50.278;18.192;2023-08-20T00:49:52;100025.39;;;20.22;85.24
76794;BME280;65745;50.278;18.192;2023-08-20T00:52:24;100024.17;;;20.22;85.39
76794;BME280;65745;50.278;18.192;2023-08-20T00:54:57;100024.95;;;20.18;85.93
76794;BME280;65745;50.278;18.192;2023-08-20T00:57:29;100025.42;;;20.10;86.57
76794;BME280;65745;50.278;18.192;2023-08-20T01:00:02;100022.36;;;20.05;86.49
76794;BME280;65745;50.278;18.192;2023-08-20T01:02:38;100019.77;;;20.04;85.68
76794;BME280;65745;50.278;18.192;2023-08-20T01:05:11;100016.06;;;20.05;85.53
76794;BME280;65745;50.278;18.192;2023-08-20T01:08:00;100017.45;;;20.06;85.77
76794;BME280;65745;50.278;18.192;2023-08-20T01:10:42;100017.52;;;20.02;85.96
76794;BME280;65745;50.278;18.192;2023-08-20T01:13:17;100018.66;;;19.97;86.93
76794;BME280;65745;50.278;18.192;2023-08-20T01:15:49;100019.23;;;19.93;86.73
76794;BME280;65745;50.278;18.192;2023-08-20T01:18:22;100017.34;;;19.92;86.11
76794;BME280;65745;50.278;18.192;2023-08-20T01:21:01;100016.05;;;19.95;85.53
76794;BME280;65745;50.278;18.192;2023-08-20T01:23:52;100017.58;;;19.99;85.46
76794;BME280;65745;50.278;18.192;2023-08-20T01:26:40;100019.65;;;20.01;84.51
76794;BME280;65745;50.278;18.192;2023-08-20T01:29:21;100018.23;;;19.90;84.52
76794;BME280;65745;50.278;18.192;2023-08-20T01:31:54;100020.90;;;19.88;84.18
76794;BME280;65745;50.278;18.192;2023-08-20T01:34:26;100020.25;;;19.84;84.35
76794;BME280;65745;50.278;18.192;2023-08-20T01:36:58;100014.40;;;19.78;84.21
76794;BME280;65745;50.278;18.192;2023-08-20T01:39:30;100020.06;;;19.74;84.25
76794;BME280;65745;50.278;18.192;2023-08-20T01:42:03;100021.17;;;19.70;84.19
76794;BME280;65745;50.278;18.192;2023-08-20T01:44:35;100023.16;;;19.66;84.30
76794;BME280;65745;50.278;18.192;2023-08-20T01:47:07;100022.58;;;19.59;84.50
76794;BME280;65745;50.278;18.192;2023-08-20T01:49:39;100022.79;;;19.56;84.24
76794;BME280;65745;50.278;18.192;2023-08-20T01:52:11;100021.41;;;19.54;84.83
76794;BME280;65745;50.278;18.192;2023-08-20T01:54:43;100024.86;;;19.45;86.57
76794;BME280;65745;50.278;18.192;2023-08-20T01:57:15;100025.95;;;19.39;85.64
76794;BME280;65745;50.278;18.192;2023-08-20T01:59:48;100021.09;;;19.38;86.55
76794;BME280;65745;50.278;18.192;2023-08-20T02:02:21;100022.16;;;19.37;85.85
76794;BME280;65745;50.278;18.192;2023-08-20T02:04:53;100021.44;;;19.38;85.66
76794;BME280;65745;50.278;18.192;2023-08-20T02:07:25;100020.41;;;19.37;87.05
76794;BME280;65745;50.278;18.192;2023-08-20T02:09:57;100026.86;;;19.37;86.22
76794;BME280;65745;50.278;18.192;2023-08-20T02:12:29;100029.27;;;19.40;86.02
76794;BME280;65745;50.278;18.192;2023-08-20T02:15:01;100027.16;;;19.42;86.10
76794;BME280;65745;50.278;18.192;2023-08-20T02:17:34;100028.00;;;19.44;85.81
76794;BME280;65745;50.278;18.192;2023-08-20T02:20:08;100023.65;;;19.45;85.93
76794;BME280;65745;50.278;18.192;2023-08-20T02:22:41;100024.34;;;19.44;86.40
76794;BME280;65745;50.278;18.192;2023-08-20T02:25:14;100030.32;;;19.40;85.73
76794;BME280;65745;50.278;18.192;2023-08-20T02:27:46;100024.77;;;19.38;85.40
76794;BME280;65745;50.278;18.192;2023-08-20T02:30:18;100028.28;;;19.36;85.23
76794;BME280;65745;50.278;18.192;2023-08-20T02:32:50;100027.63;;;19.33;85.32
76794;BME280;65745;50.278;18.192;2023-08-20T02:35:22;100022.44;;;19.29;85.29
76794;BME280;65745;50.278;18.192;2023-08-20T02:37:54;100019.20;;;19.24;85.43
76794;BME280;65745;50.278;18.192;2023-08-20T02:40:26;100018.70;;;19.21;84.97
76794;BME280;65745;50.278;18.192;2023-08-20T02:42:58;100019.63;;;19.17;85.09
76794;BME280;65745;50.278;18.192;2023-08-20T02:45:30;100017.92;;;19.15;84.83
76794;BME280;65745;50.278;18.192;2023-08-20T02:48:04;100015.67;;;19.12;84.66
76794;BME280;65745;50.278;18.192;2023-08-20T02:50:36;100014.52;;;19.07;84.89
76794;BME280;65745;50.278;18.192;2023-08-20T02:53:08;100020.87;;;19.02;84.70
76794;BME280;65745;50.278;18.192;2023-08-20T02:55:40;100018.12;;;18.98;85.05
76794;BME280;65745;50.278;18.192;2023-08-20T02:58:13;100012.75;;;18.96;85.28
76794;BME280;65745;50.278;18.192;2023-08-20T03:00:45;100014.36;;;18.92;86.72
76794;BME280;65745;50.278;18.192;2023-08-20T03:03:17;100014.41;;;18.88;87.11
76794;BME280;65745;50.278;18.192;2023-08-20T03:05:49;100013.55;;;18.87;87.43
76794;BME280;65745;50.278;18.192;2023-08-20T03:08:21;100014.45;;;18.85;86.75
76794;BME280;65745;50.278;18.192;2023-08-20T03:10:53;100016.86;;;18.86;86.60
76794;BME280;65745;50.278;18.192;2023-08-20T03:13:25;100018.41;;;18.89;86.52
76794;BME280;65745;50.278;18.192;2023-08-20T03:15:57;100019.81;;;18.89;86.30
76794;BME280;65745;50.278;18.192;2023-08-20T03:18:29;100020.02;;;18.87;86.16
76794;BME280;65745;50.278;18.192;2023-08-20T03:21:01;100019.17;;;18.83;86.05
76794;BME280;65745;50.278;18.192;2023-08-20T03:23:33;100022.52;;;18.81;86.06
76794;BME280;65745;50.278;18.192;2023-08-20T03:26:05;100026.91;;;18.78;85.89
76794;BME280;65745;50.278;18.192;2023-08-20T03:28:37;100026.41;;;18.76;86.00
76794;BME280;65745;50.278;18.192;2023-08-20T03:31:09;100030.64;;;18.74;86.04
76794;BME280;65745;50.278;18.192;2023-08-20T03:33:44;100033.08;;;18.75;86.23
76794;BME280;65745;50.278;18.192;2023-08-20T03:36:16;100036.06;;;18.72;85.63
76794;BME280;65745;50.278;18.192;2023-08-20T03:38:48;100038.73;;;18.68;85.86
76794;BME280;65745;50.278;18.192;2023-08-20T03:41:20;100045.02;;;18.66;86.16
76794;BME280;65745;50.278;18.192;2023-08-20T03:43:53;100046.94;;;18.66;86.25
76794;BME280;65745;50.278;18.192;2023-08-20T03:46:25;100050.08;;;18.66;86.45
76794;BME280;65745;50.278;18.192;2023-08-20T03:48:57;100053.59;;;18.65;86.43
76794;BME280;65745;50.278;18.192;2023-08-20T03:51:30;100057.97;;;18.63;86.57
76794;BME280;65745;50.278;18.192;2023-08-20T03:54:03;100059.20;;;18.62;86.65
76794;BME280;65745;50.278;18.192;2023-08-20T03:56:35;100057.52;;;18.55;87.34
76794;BME280;65745;50.278;18.192;2023-08-20T03:59:07;100055.08;;;18.52;87.74
76794;BME280;65745;50.278;18.192;2023-08-20T04:01:39;100060.54;;;18.48;87.84
76794;BME280;65745;50.278;18.192;2023-08-20T04:04:12;100066.61;;;18.50;87.45
76794;BME280;65745;50.278;18.192;2023-08-20T04:06:45;100064.16;;;18.50;87.51
76794;BME280;65745;50.278;18.192;2023-08-20T04:09:17;100065.93;;;18.49;87.44
76794;BME280;65745;50.278;18.192;2023-08-20T04:11:49;100072.02;;;18.52;87.25
76794;BME280;65745;50.278;18.192;2023-08-20T04:14:21;100071.83;;;18.56;87.17
76794;BME280;65745;50.278;18.192;2023-08-20T04:16:53;100072.51;;;18.59;87.39
76794;BME280;65745;50.278;18.192;2023-08-20T04:19:25;100071.63;;;18.58;87.82
76794;BME280;65745;50.278;18.192;2023-08-20T04:21:57;100072.16;;;18.58;87.57
76794;BME280;65745;50.278;18.192;2023-08-20T04:24:29;100072.66;;;18.60;87.53
76794;BME280;65745;50.278;18.192;2023-08-20T04:27:02;100068.10;;;18.62;87.82
76794;BME280;65745;50.278;18.192;2023-08-20T04:29:34;100066.52;;;18.61;88.09
76794;BME280;65745;50.278;18.192;2023-08-20T04:32:06;100068.23;;;18.65;87.83
76794;BME280;65745;50.278;18.192;2023-08-20T04:34:38;100070.27;;;18.70;87.91
76794;BME280;65745;50.278;18.192;2023-08-20T04:37:10;100070.42;;;18.72;89.12
76794;BME280;65745;50.278;18.192;2023-08-20T04:39:43;100072.16;;;18.74;89.15
76794;BME280;65745;50.278;18.192;2023-08-20T04:42:15;100069.84;;;18.80;90.03
76794;BME280;65745;50.278;18.192;2023-08-20T04:44:47;100075.00;;;18.86;90.30
76794;BME280;65745;50.278;18.192;2023-08-20T04:47:20;100077.55;;;18.93;89.30
76794;BME280;65745;50.278;18.192;2023-08-20T04:49:52;100078.33;;;19.01;88.66
76794;BME280;65745;50.278;18.192;2023-08-20T04:52:24;100079.97;;;19.09;88.56
76794;BME280;65745;50.278;18.192;2023-08-20T04:54:56;100080.06;;;19.17;88.55
76794;BME280;65745;50.278;18.192;2023-08-20T04:57:28;100082.41;;;19.24;88.60
76794;BME280;65745;50.278;18.192;2023-08-20T05:00:01;100083.19;;;19.32;88.29
76794;BME280;65745;50.278;18.192;2023-08-20T05:02:33;100086.77;;;19.39;88.98
76794;BME280;65745;50.278;18.192;2023-08-20T05:05:06;100083.54;;;19.46;89.00
76794;BME280;65745;50.278;18.192;2023-08-20T05:07:39;100080.98;;;19.56;89.19
76794;BME280;65745;50.278;18.192;2023-08-20T05:10:11;100084.36;;;19.64;88.39
76794;BME280;65745;50.278;18.192;2023-08-20T05:12:44;100082.49;;;19.72;88.12
76794;BME280;65745;50.278;18.192;2023-08-20T05:15:17;100080.25;;;19.82;88.49
76794;BME280;65745;50.278;18.192;2023-08-20T05:17:50;100083.45;;;19.90;88.13
76794;BME280;65745;50.278;18.192;2023-08-20T05:20:22;100084.20;;;19.99;87.92
76794;BME280;65745;50.278;18.192;2023-08-20T05:22:54;100086.90;;;20.05;87.71
76794;BME280;65745;50.278;18.192;2023-08-20T05:25:26;100087.48;;;20.12;87.53
76794;BME280;65745;50.278;18.192;2023-08-20T05:27:59;100085.86;;;20.15;88.15
76794;BME280;65745;50.278;18.192;2023-08-20T05:30:32;100089.63;;;20.21;88.31
76794;BME280;65745;50.278;18.192;2023-08-20T05:33:04;100090.89;;;20.28;88.00
76794;BME280;65745;50.278;18.192;2023-08-20T05:35:38;100086.77;;;20.36;88.05
76794;BME280;65745;50.278;18.192;2023-08-20T05:38:11;100086.95;;;20.46;87.63
76794;BME280;65745;50.278;18.192;2023-08-20T05:40:43;100086.05;;;20.57;87.05
76794;BME280;65745;50.278;18.192;2023-08-20T05:43:15;100088.88;;;20.65;87.09
76794;BME280;65745;50.278;18.192;2023-08-20T05:45:48;100087.81;;;20.75;87.01
76794;BME280;65745;50.278;18.192;2023-08-20T05:48:23;100094.10;;;20.86;86.65
76794;BME280;65745;50.278;18.192;2023-08-20T05:50:55;100098.23;;;20.98;86.66
76794;BME280;65745;50.278;18.192;2023-08-20T05:53:27;100101.85;;;21.11;86.16
76794;BME280;65745;50.278;18.192;2023-08-20T05:55:59;100105.20;;;21.20;85.84
76794;BME280;65745;50.278;18.192;2023-08-20T05:58:31;100102.92;;;21.29;85.49
76794;BME280;65745;50.278;18.192;2023-08-20T06:01:03;100104.52;;;21.36;85.09
76794;BME280;65745;50.278;18.192;2023-08-20T06:03:35;100100.84;;;21.44;84.99
76794;BME280;65745;50.278;18.192;2023-08-20T06:06:07;100104.59;;;21.57;84.86
76794;BME280;65745;50.278;18.192;2023-08-20T06:08:39;100107.67;;;21.69;84.59
76794;BME280;65745;50.278;18.192;2023-08-20T06:11:24;100120.23;;;21.79;84.46
76794;BME280;65745;50.278;18.192;2023-08-20T06:13:56;100119.73;;;21.95;84.58
76794;BME280;65745;50.278;18.192;2023-08-20T06:16:28;100114.66;;;22.16;84.62
76794;BME280;65745;50.278;18.192;2023-08-20T06:19:01;100112.91;;;22.31;83.84
76794;BME280;65745;50.278;18.192;2023-08-20T06:21:34;100114.95;;;22.40;83.71
76794;BME280;65745;50.278;18.192;2023-08-20T06:24:07;100116.31;;;22.56;83.72
76794;BME280;65745;50.278;18.192;2023-08-20T06:26:39;100115.09;;;22.77;83.58
76794;BME280;65745;50.278;18.192;2023-08-20T06:29:11;100114.30;;;23.06;83.42
76794;BME280;65745;50.278;18.192;2023-08-20T06:31:43;100110.64;;;23.36;82.94
76794;BME280;65745;50.278;18.192;2023-08-20T06:34:15;100106.27;;;23.54;80.76
76794;BME280;65745;50.278;18.192;2023-08-20T06:36:48;100112.84;;;23.63;80.73
76794;BME280;65745;50.278;18.192;2023-08-20T06:39:20;100117.20;;;23.70;80.73
76794;BME280;65745;50.278;18.192;2023-08-20T06:41:52;100110.28;;;23.78;80.55
76794;BME280;65745;50.278;18.192;2023-08-20T06:44:24;100111.30;;;23.85;79.60
76794;BME280;65745;50.278;18.192;2023-08-20T06:46:56;100113.92;;;23.97;79.45
76794;BME280;65745;50.278;18.192;2023-08-20T06:49:28;100111.99;;;24.07;78.85
76794;BME280;65745;50.278;18.192;2023-08-20T06:52:00;100115.91;;;24.18;78.40
76794;BME280;65745;50.278;18.192;2023-08-20T06:54:33;100120.41;;;24.26;78.13
76794;BME280;65745;50.278;18.192;2023-08-20T06:57:05;100121.81;;;24.37;78.14
76794;BME280;65745;50.278;18.192;2023-08-20T06:59:37;100124.83;;;24.52;77.66
76794;BME280;65745;50.278;18.192;2023-08-20T07:02:09;100125.48;;;24.69;76.93
76794;BME280;65745;50.278;18.192;2023-08-20T07:04:41;100125.85;;;24.95;76.88
76794;BME280;65745;50.278;18.192;2023-08-20T07:07:14;100126.55;;;25.15;76.39
76794;BME280;65745;50.278;18.192;2023-08-20T07:09:46;100119.38;;;25.32;75.31
76794;BME280;65745;50.278;18.192;2023-08-20T07:12:18;100124.11;;;25.42;74.50
76794;BME280;65745;50.278;18.192;2023-08-20T07:14:50;100123.44;;;25.51;74.39
76794;BME280;65745;50.278;18.192;2023-08-20T07:17:22;100121.58;;;25.58;73.74
76794;BME280;65745;50.278;18.192;2023-08-20T07:19:54;100126.34;;;25.63;71.45
76794;BME280;65745;50.278;18.192;2023-08-20T07:22:26;100127.73;;;25.73;73.64
76794;BME280;65745;50.278;18.192;2023-08-20T07:24:58;100129.44;;;25.88;72.73
76794;BME280;65745;50.278;18.192;2023-08-20T07:27:30;100129.30;;;26.01;72.30
76794;BME280;65745;50.278;18.192;2023-08-20T07:30:04;100130.98;;;26.15;72.21
76794;BME280;65745;50.278;18.192;2023-08-20T07:32:37;100132.48;;;26.23;72.04
76794;BME280;65745;50.278;18.192;2023-08-20T07:35:09;100132.09;;;26.32;71.65
76794;BME280;65745;50.278;18.192;2023-08-20T07:37:41;100136.15;;;26.45;70.42
76794;BME280;65745;50.278;18.192;2023-08-20T07:40:14;100135.41;;;26.63;70.31
76794;BME280;65745;50.278;18.192;2023-08-20T07:42:46;100131.23;;;26.74;68.90
76794;BME280;65745;50.278;18.192;2023-08-20T07:45:18;100129.67;;;26.81;67.37
76794;BME280;65745;50.278;18.192;2023-08-20T07:47:50;100123.91;;;26.92;68.42
76794;BME280;65745;50.278;18.192;2023-08-20T07:50:22;100129.11;;;27.11;68.75
76794;BME280;65745;50.278;18.192;2023-08-20T07:52:54;100132.21;;;27.21;67.76
76794;BME280;65745;50.278;18.192;2023-08-20T07:55:26;100135.24;;;27.36;67.42
76794;BME280;65745;50.278;18.192;2023-08-20T07:57:58;100133.81;;;27.48;65.92
76794;BME280;65745;50.278;18.192;2023-08-20T08:00:30;100133.23;;;27.64;66.85
76794;BME280;65745;50.278;18.192;2023-08-20T08:03:03;100134.66;;;27.83;65.94
76794;BME280;65745;50.278;18.192;2023-08-20T08:05:35;100132.16;;;27.98;65.75
76794;BME280;65745;50.278;18.192;2023-08-20T08:08:08;100133.55;;;28.10;64.96
76794;BME280;65745;50.278;18.192;2023-08-20T08:10:40;100135.88;;;28.24;64.46
76794;BME280;65745;50.278;18.192;2023-08-20T08:13:19;100141.96;;;28.45;63.92
76794;BME280;65745;50.278;18.192;2023-08-20T08:15:51;100140.56;;;28.76;63.65
76794;BME280;65745;50.278;18.192;2023-08-20T08:18:23;100139.48;;;29.04;62.89
76794;BME280;65745;50.278;18.192;2023-08-20T08:20:55;100139.44;;;29.18;61.29
76794;BME280;65745;50.278;18.192;2023-08-20T08:23:27;100135.60;;;29.27;61.20
76794;BME280;65745;50.278;18.192;2023-08-20T08:25:59;100137.74;;;29.34;60.76
76794;BME280;65745;50.278;18.192;2023-08-20T08:28:31;100134.50;;;29.48;60.81
76794;BME280;65745;50.278;18.192;2023-08-20T08:31:04;100135.27;;;29.63;59.48
76794;BME280;65745;50.278;18.192;2023-08-20T08:33:38;100136.60;;;29.80;58.25
76794;BME280;65745;50.278;18.192;2023-08-20T08:36:10;100135.03;;;29.96;58.57
76794;BME280;65745;50.278;18.192;2023-08-20T08:38:42;100136.15;;;30.14;58.33
76794;BME280;65745;50.278;18.192;2023-08-20T08:41:14;100139.57;;;30.44;58.78
76794;BME280;65745;50.278;18.192;2023-08-20T08:43:47;100136.15;;;30.69;57.60
76794;BME280;65745;50.278;18.192;2023-08-20T08:46:19;100130.35;;;30.71;56.08
76794;BME280;65745;50.278;18.192;2023-08-20T08:48:52;100131.98;;;30.70;55.40
76794;BME280;65745;50.278;18.192;2023-08-20T08:51:25;100132.27;;;30.65;54.88
76794;BME280;65745;50.278;18.192;2023-08-20T08:53:58;100131.02;;;30.69;54.91
76794;BME280;65745;50.278;18.192;2023-08-20T08:56:31;100135.70;;;30.70;54.66
76794;BME280;65745;50.278;18.192;2023-08-20T08:59:03;100130.08;;;30.69;54.89
76794;BME280;65745;50.278;18.192;2023-08-20T09:01:39;100133.46;;;30.81;54.79
76794;BME280;65745;50.278;18.192;2023-08-20T09:04:12;100130.30;;;30.89;54.27
76794;BME280;65745;50.278;18.192;2023-08-20T09:06:49;100132.61;;;30.98;54.44
76794;BME280;65745;50.278;18.192;2023-08-20T09:09:22;100133.65;;;31.13;53.98
76794;BME280;65745;50.278;18.192;2023-08-20T09:11:54;100135.61;;;31.11;53.75
76794;BME280;65745;50.278;18.192;2023-08-20T09:14:29;100130.71;;;31.10;54.08
76794;BME280;65745;50.278;18.192;2023-08-20T09:17:02;100132.98;;;31.22;53.52
76794;BME280;65745;50.278;18.192;2023-08-20T09:19:37;100132.97;;;31.39;53.60
76794;BME280;65745;50.278;18.192;2023-08-20T09:22:09;100131.70;;;31.56;53.43
76794;BME280;65745;50.278;18.192;2023-08-20T09:24:46;100132.69;;;31.75;53.17
76794;BME280;65745;50.278;18.192;2023-08-20T09:27:19;100124.50;;;31.99;53.70
76794;BME280;65745;50.278;18.192;2023-08-20T09:29:53;100130.61;;;32.21;53.32
76794;BME280;65745;50.278;18.192;2023-08-20T09:32:27;100132.81;;;32.38;52.35
76794;BME280;65745;50.278;18.192;2023-08-20T09:34:59;100133.91;;;32.48;50.87
76794;BME280;65745;50.278;18.192;2023-08-20T09:37:33;100135.50;;;32.46;50.14
76794;BME280;65745;50.278;18.192;2023-08-20T09:40:08;100136.59;;;32.41;49.60
76794;BME280;65745;50.278;18.192;2023-08-20T09:42:40;100138.52;;;32.41;49.15
76794;BME280;65745;50.278;18.192;2023-08-20T09:45:14;100140.70;;;32.51;49.53
76794;BME280;65745;50.278;18.192;2023-08-20T09:47:47;100142.27;;;32.59;48.54
76794;BME280;65745;50.278;18.192;2023-08-20T09:50:23;100140.60;;;32.61;48.74
76794;BME280;65745;50.278;18.192;2023-08-20T09:52:58;100136.95;;;32.65;48.57
76794;BME280;65745;50.278;18.192;2023-08-20T09:55:36;100137.73;;;32.72;46.50
76794;BME280;65745;50.278;18.192;2023-08-20T09:58:11;100135.64;;;32.71;47.10
76794;BME280;65745;50.278;18.192;2023-08-20T10:00:46;100137.17;;;32.77;47.36
76794;BME280;65745;50.278;18.192;2023-08-20T10:03:18;100134.17;;;33.02;47.67
76794;BME280;65745;50.278;18.192;2023-08-20T10:05:51;100132.41;;;33.33;46.87
76794;BME280;65745;50.278;18.192;2023-08-20T10:08:23;100126.69;;;33.68;45.62
76794;BME280;65745;50.278;18.192;2023-08-20T10:10:56;100126.84;;;33.97;45.70
76794;BME280;65745;50.278;18.192;2023-08-20T10:13:28;100126.39;;;34.21;43.62
76794;BME280;65745;50.278;18.192;2023-08-20T10:16:00;100128.67;;;34.24;42.67
76794;BME280;65745;50.278;18.192;2023-08-20T10:18:35;100123.05;;;34.25;42.03
76794;BME280;65745;50.278;18.192;2023-08-20T10:21:07;100122.13;;;34.30;41.32
76794;BME280;65745;50.278;18.192;2023-08-20T10:23:45;100120.23;;;34.57;42.25
76794;BME280;65745;50.278;18.192;2023-08-20T10:26:21;100118.05;;;34.83;40.57
76794;BME280;65745;50.278;18.192;2023-08-20T10:32:05;100113.80;;;35.15;41.28
76794;BME280;65745;50.278;18.192;2023-08-20T10:34:39;100109.75;;;35.32;40.75
76794;BME280;65745;50.278;18.192;2023-08-20T10:37:27;100112.61;;;35.61;40.68
76794;BME280;65745;50.278;18.192;2023-08-20T10:40:00;100107.61;;;35.86;39.19
76794;BME280;65745;50.278;18.192;2023-08-20T10:42:32;100104.94;;;36.11;40.30
76794;BME280;65745;50.278;18.192;2023-08-20T10:45:07;100106.48;;;36.40;40.73
76794;BME280;65745;50.278;18.192;2023-08-20T10:47:47;100106.75;;;36.82;39.20
76794;BME280;65745;50.278;18.192;2023-08-20T10:50:20;100100.08;;;36.76;35.61
76794;BME280;65745;50.278;18.192;2023-08-20T10:52:57;100098.46;;;36.71;35.47
76794;BME280;65745;50.278;18.192;2023-08-20T10:55:29;100097.17;;;36.74;36.91
76794;BME280;65745;50.278;18.192;2023-08-20T10:58:06;100097.59;;;36.95;36.60
76794;BME280;65745;50.278;18.192;2023-08-20T11:00:38;100098.27;;;37.02;35.71
76794;BME280;65745;50.278;18.192;2023-08-20T11:03:10;100093.55;;;37.07;35.17
76794;BME280;65745;50.278;18.192;2023-08-20T11:05:43;100087.53;;;37.17;35.67
76794;BME280;65745;50.278;18.192;2023-08-20T11:08:15;100089.80;;;37.22;35.92
76794;BME280;65745;50.278;18.192;2023-08-20T11:10:52;100092.73;;;37.37;35.86
76794;BME280;65745;50.278;18.192;2023-08-20T11:13:26;100088.04;;;37.51;34.61
76794;BME280;65745;50.278;18.192;2023-08-20T11:15:58;100087.27;;;37.76;34.39
76794;BME280;65745;50.278;18.192;2023-08-20T11:18:31;100088.27;;;38.16;33.75
76794;BME280;65745;50.278;18.192;2023-08-20T11:21:04;100085.90;;;38.53;33.28
76794;BME280;65745;50.278;18.192;2023-08-20T11:23:37;100081.35;;;38.84;32.51
76794;BME280;65745;50.278;18.192;2023-08-20T11:26:12;100080.88;;;39.04;32.47
76794;BME280;65745;50.278;18.192;2023-08-20T11:28:47;100079.91;;;39.14;30.94
76794;BME280;65745;50.278;18.192;2023-08-20T11:31:20;100077.27;;;39.45;31.49
76794;BME280;65745;50.278;18.192;2023-08-20T11:33:52;100080.48;;;39.71;30.11
76794;BME280;65745;50.278;18.192;2023-08-20T11:36:24;100081.91;;;39.75;29.61
76794;BME280;65745;50.278;18.192;2023-08-20T11:38:56;100079.00;;;39.61;30.53
76794;BME280;65745;50.278;18.192;2023-08-20T11:41:28;100080.86;;;39.62;30.13
76794;BME280;65745;50.278;18.192;2023-08-20T11:44:01;100077.27;;;39.76;30.33
76794;BME280;65745;50.278;18.192;2023-08-20T11:46:34;100079.56;;;40.04;29.98
76794;BME280;65745;50.278;18.192;2023-08-20T11:49:14;100078.61;;;39.99;28.59
76794;BME280;65745;50.278;18.192;2023-08-20T11:51:49;100076.25;;;40.06;28.64
76794;BME280;65745;50.278;18.192;2023-08-20T11:54:22;100077.60;;;40.12;28.86
76794;BME280;65745;50.278;18.192;2023-08-20T11:57:03;100077.96;;;39.98;28.42
76794;BME280;65745;50.278;18.192;2023-08-20T11:59:35;100076.42;;;40.01;29.02
76794;BME280;65745;50.278;18.192;2023-08-20T12:02:08;100070.44;;;40.00;28.53
76794;BME280;65745;50.278;18.192;2023-08-20T12:04:40;100066.53;;;39.86;28.70
76794;BME280;65745;50.278;18.192;2023-08-20T12:07:16;100067.31;;;39.78;29.36
76794;BME280;65745;50.278;18.192;2023-08-20T12:09:48;100066.23;;;39.84;28.94
76794;BME280;65745;50.278;18.192;2023-08-20T12:12:21;100070.11;;;40.22;29.98
76794;BME280;65745;50.278;18.192;2023-08-20T12:14:53;100073.81;;;40.27;29.44
76794;BME280;65745;50.278;18.192;2023-08-20T12:17:25;100071.44;;;40.25;29.15
76794;BME280;65745;50.278;18.192;2023-08-20T12:19:58;100067.12;;;40.14;28.87
76794;BME280;65745;50.278;18.192;2023-08-20T12:22:29;100067.42;;;40.13;29.22
76794;BME280;65745;50.278;18.192;2023-08-20T12:25:02;100067.79;;;40.02;28.01
76794;BME280;65745;50.278;18.192;2023-08-20T12:27:35;100066.14;;;40.04;28.49
76794;BME280;65745;50.278;18.192;2023-08-20T12:30:12;100066.72;;;40.33;28.59
76794;BME280;65745;50.278;18.192;2023-08-20T12:32:44;100062.88;;;40.54;27.96
76794;BME280;65745;50.278;18.192;2023-08-20T12:35:16;100060.36;;;40.79;27.96
76794;BME280;65745;50.278;18.192;2023-08-20T12:37:48;100057.21;;;41.09;27.74
76794;BME280;65745;50.278;18.192;2023-08-20T12:40:20;100054.22;;;41.33;26.71
76794;BME280;65745;50.278;18.192;2023-08-20T12:42:53;100050.59;;;41.72;26.30
76794;BME280;65745;50.278;18.192;2023-08-20T12:45:25;100049.29;;;41.91;25.69
76794;BME280;65745;50.278;18.192;2023-08-20T12:47:57;100048.80;;;41.97;25.37
76794;BME280;65745;50.278;18.192;2023-08-20T12:50:32;100037.83;;;41.70;25.18
76794;BME280;65745;50.278;18.192;2023-08-20T12:53:04;100042.31;;;41.92;25.79
76794;BME280;65745;50.278;18.192;2023-08-20T12:55:36;100043.46;;;42.19;25.09
76794;BME280;65745;50.278;18.192;2023-08-20T12:58:08;100042.61;;;42.30;25.07
76794;BME280;65745;50.278;18.192;2023-08-20T13:00:40;100038.80;;;42.53;24.48
76794;BME280;65745;50.278;18.192;2023-08-20T13:03:13;100040.23;;;42.82;23.27
76794;BME280;65745;50.278;18.192;2023-08-20T13:05:47;100037.91;;;42.93;23.36
76794;BME280;65745;50.278;18.192;2023-08-20T13:08:20;100038.36;;;43.01;23.34
76794;BME280;65745;50.278;18.192;2023-08-20T13:10:54;100040.29;;;43.39;23.30
76794;BME280;65745;50.278;18.192;2023-08-20T13:13:28;100035.38;;;43.36;22.95